createdAt,value
2022-12-31T00:03:54.719Z,19.57
2022-12-31T00:08:49.165Z,20.10
2022-12-31T00:13:43.265Z,18.47
2022-12-31T00:18:38.282Z,18.53
2022-12-31T00:28:36.704Z,22.33
2022-12-31T00:33:30.092Z,21.07
2022-12-31T00:38:25.062Z,21.10
2022-12-31T00:48:57.655Z,25.87
2022-12-31T01:23:43.050Z,26.67
2022-12-31T01:28:37.323Z,25.87
2022-12-31T01:33:30.718Z,23.67
2022-12-31T01:38:24.060Z,26.00
2022-12-31T01:43:21.782Z,24.00
2022-12-31T01:48:20.780Z,22.10
2022-12-31T01:53:16.614Z,18.00
2022-12-31T01:58:14.933Z,22.23
2022-12-31T04:00:31.351Z,3.10
2022-12-31T04:05:25.043Z,4.60
2022-12-31T04:10:20.102Z,2.90
2022-12-31T04:15:18.542Z,1.80
2022-12-31T04:20:14.174Z,2.43
2022-12-31T04:25:11.439Z,2.67
2022-12-31T04:30:05.939Z,1.30
2022-12-31T04:34:59.338Z,1.90
2022-12-31T04:39:54.042Z,3.23
2022-12-31T04:44:47.391Z,2.20
2022-12-31T04:49:40.708Z,1.17
2022-12-31T04:54:34.065Z,3.63
2022-12-31T04:59:29.011Z,1.40
2022-12-31T05:04:22.394Z,1.00
2022-12-31T05:09:15.683Z,3.87
2022-12-31T05:14:09.089Z,1.07
2022-12-31T05:19:06.445Z,1.33
2022-12-31T05:23:59.830Z,1.00
2022-12-31T05:28:53.276Z,1.37
2022-12-31T05:33:46.679Z,1.20
2022-12-31T05:38:41.460Z,1.20
2022-12-31T05:43:35.635Z,1.20
2022-12-31T05:48:29.188Z,0.80
2022-12-31T05:53:22.744Z,1.37
2022-12-31T05:58:18.460Z,1.20
2022-12-31T06:03:12.374Z,1.63
2022-12-31T06:08:06.374Z,2.13
2022-12-31T06:12:59.728Z,1.60
2022-12-31T06:17:54.626Z,0.90
2022-12-31T06:22:48.101Z,0.80
2022-12-31T06:27:41.587Z,1.00
2022-12-31T06:32:35.535Z,0.80
2022-12-31T06:37:30.321Z,0.90
2022-12-31T06:42:23.679Z,1.37
2022-12-31T06:47:17.116Z,0.70
2022-12-31T06:52:10.465Z,1.00
2022-12-31T06:57:06.485Z,1.53
2022-12-31T07:02:17.921Z,1.70
2022-12-31T07:07:22.314Z,1.90
2022-12-31T07:12:31.169Z,1.73
2022-12-31T07:17:33.166Z,2.70
2022-12-31T07:22:27.514Z,1.53
2022-12-31T07:27:54.206Z,1.77
2022-12-31T07:33:12.768Z,2.07
2022-12-31T07:38:05.851Z,2.43
2022-12-31T07:43:14.861Z,2.60
2022-12-31T08:01:41.215Z,2.93
2022-12-31T13:47:46.585Z,3.50
2022-12-31T17:11:39.278Z,15.77
2022-12-31T17:16:34.577Z,13.10
2022-12-31T17:21:32.641Z,19.80
2022-12-31T17:26:32.077Z,13.17
2022-12-31T17:31:38.281Z,17.93
2022-12-31T17:36:31.777Z,21.77
2022-12-31T17:41:28.605Z,18.87
2022-12-31T17:46:26.249Z,19.60
2022-12-31T17:51:24.635Z,15.93
2022-12-31T17:56:20.266Z,16.77
2022-12-31T18:01:17.960Z,16.57
2022-12-31T18:06:16.877Z,16.47
2022-12-31T18:30:48.356Z,20.43
2022-12-31T18:36:08.313Z,19.77
2022-12-31T18:40:59.421Z,23.07
2022-12-31T18:45:55.567Z,18.17
2022-12-31T18:50:49.939Z,17.97
2022-12-31T18:55:48.732Z,16.77
2022-12-31T19:00:42.338Z,17.77
2022-12-31T19:05:39.419Z,14.50
2022-12-31T19:10:33.054Z,14.87
2022-12-31T19:15:33.046Z,17.83
2022-12-31T19:20:26.682Z,17.10
2022-12-31T19:25:24.317Z,19.40
2022-12-31T19:30:22.470Z,17.73
2022-12-31T19:35:17.718Z,22.90
2022-12-31T19:40:17.151Z,20.53
2022-12-31T19:58:20.120Z,26.30
2022-12-31T20:03:15.044Z,28.73
2022-12-31T20:08:09.240Z,32.70
2022-12-31T20:13:02.694Z,33.07
2022-12-31T20:17:59.677Z,28.17
2022-12-31T20:55:32.534Z,26.30
2022-12-31T21:00:26.040Z,29.13
2022-12-31T21:05:19.682Z,29.53
2022-12-31T21:10:15.221Z,28.63
2022-12-31T21:15:11.702Z,29.50
2022-12-31T21:20:06.450Z,40.20
2022-12-31T21:25:01.167Z,37.87
2022-12-31T21:30:17.664Z,41.17
2022-12-31T21:40:23.992Z,82.60
2022-12-31T21:45:17.741Z,72.60
2022-12-31T21:50:12.575Z,73.67
2022-12-31T21:55:25.627Z,107.27
2022-12-31T22:00:44.211Z,91.00
2022-12-31T22:05:40.868Z,127.70
2022-12-31T22:10:37.262Z,89.40
2022-12-31T22:15:31.107Z,90.53
2022-12-31T22:20:28.483Z,99.93
2022-12-31T22:25:23.877Z,108.13
2022-12-31T22:30:20.187Z,97.73
2022-12-31T22:35:14.049Z,104.67
2022-12-31T22:40:08.947Z,92.77
2022-12-31T22:45:03.719Z,93.90
2022-12-31T22:49:57.086Z,93.30
2022-12-31T22:54:50.421Z,88.60
2022-12-31T22:59:43.950Z,72.03
2022-12-31T23:04:38.657Z,66.67
2022-12-31T23:09:49.404Z,73.70
2022-12-31T23:14:59.942Z,69.03
2022-12-31T23:20:12.070Z,169.57
2022-12-31T23:25:06.430Z,141.97
2022-12-31T23:29:59.836Z,63.73
2022-12-31T23:34:55.702Z,60.17
2022-12-31T23:39:49.032Z,63.53
